Zhenjiang, China
Current Conditions -  °F | °C
As of 9:00 PM on Friday 24 Oct 2014 (Local Time) from ZSNJ Reporting Station
Haze Haze  
Wind Chill: 64°   Ceiling: Unl
Heat Index: 64°   Visibility: 3mi
Dew Point: 54°   Wind: 2mph
Humidity: 68%   Direction: NA
Pressure: 30.03"   Gusts: NA
Location:  32.22°N, 119.43°E
Report Text: ZSNJ 241300Z VRB01MPS 5000 HZ NSC 18/12 Q1017 NOSIG
Loading
Personal Weather Stations






























Interactive Weather Map
Tropical Storm Tracking
New forecast layout! Learn more

10-Day Weather Forecast

Advertisements
Track Severe Weather on mobile